sensor_id;sensor_type;location;lat;lon;timestamp;P1;durP1;ratioP1;P2;durP2;ratioP2
43823;SDS011;29470;53.550;9.926;2023-09-18T00:03:55;9.05;;;6.50;;
43823;SDS011;29470;53.550;9.926;2023-09-18T00:08:59;8.00;;;6.15;;
43823;SDS011;29470;53.550;9.926;2023-09-18T00:14:02;9.88;;;6.50;;
43823;SDS011;29470;53.550;9.926;2023-09-18T00:19:06;8.20;;;6.18;;
43823;SDS011;29470;53.550;9.926;2023-09-18T00:24:10;9.93;;;6.93;;
43823;SDS011;29470;53.550;9.926;2023-09-18T00:29:13;9.93;;;6.38;;
43823;SDS011;29470;53.550;9.926;2023-09-18T00:34:17;7.70;;;6.15;;
43823;SDS011;29470;53.550;9.926;2023-09-18T00:39:20;7.90;;;5.85;;
43823;SDS011;29470;53.550;9.926;2023-09-18T00:44:23;8.15;;;6.32;;
43823;SDS011;29470;53.550;9.926;2023-09-18T00:49:29;7.07;;;5.75;;
43823;SDS011;29470;53.550;9.926;2023-09-18T00:54:32;8.75;;;6.20;;
43823;SDS011;29470;53.550;9.926;2023-09-18T00:59:37;7.93;;;6.07;;
43823;SDS011;29470;53.550;9.926;2023-09-18T01:04:41;9.68;;;6.10;;
43823;SDS011;29470;53.550;9.926;2023-09-18T01:09:45;8.73;;;6.20;;
43823;SDS011;29470;53.550;9.926;2023-09-18T01:14:50;7.72;;;6.35;;
43823;SDS011;29470;53.550;9.926;2023-09-18T01:20:01;7.78;;;6.40;;
43823;SDS011;29470;53.550;9.926;2023-09-18T01:25:07;7.00;;;6.13;;
43823;SDS011;29470;53.550;9.926;2023-09-18T01:30:10;8.40;;;6.13;;
43823;SDS011;29470;53.550;9.926;2023-09-18T01:35:14;8.32;;;5.65;;
43823;SDS011;29470;53.550;9.926;2023-09-18T01:40:20;7.68;;;5.90;;
43823;SDS011;29470;53.550;9.926;2023-09-18T01:45:23;8.70;;;5.97;;
43823;SDS011;29470;53.550;9.926;2023-09-18T01:50:26;8.65;;;5.70;;
43823;SDS011;29470;53.550;9.926;2023-09-18T01:55:30;7.80;;;6.40;;
43823;SDS011;29470;53.550;9.926;2023-09-18T02:00:34;7.28;;;6.43;;
43823;SDS011;29470;53.550;9.926;2023-09-18T02:05:37;8.68;;;6.57;;
43823;SDS011;29470;53.550;9.926;2023-09-18T02:10:41;7.63;;;6.43;;
43823;SDS011;29470;53.550;9.926;2023-09-18T02:15:44;8.02;;;6.40;;
43823;SDS011;29470;53.550;9.926;2023-09-18T02:20:47;8.70;;;6.68;;
43823;SDS011;29470;53.550;9.926;2023-09-18T02:25:56;9.13;;;6.53;;
43823;SDS011;29470;53.550;9.926;2023-09-18T02:30:59;10.10;;;6.38;;
43823;SDS011;29470;53.550;9.926;2023-09-18T02:36:03;9.68;;;6.78;;
43823;SDS011;29470;53.550;9.926;2023-09-18T02:41:08;8.93;;;6.38;;
43823;SDS011;29470;53.550;9.926;2023-09-18T02:46:11;7.63;;;6.50;;
43823;SDS011;29470;53.550;9.926;2023-09-18T02:51:14;8.75;;;6.32;;
43823;SDS011;29470;53.550;9.926;2023-09-18T02:56:19;8.43;;;6.60;;
43823;SDS011;29470;53.550;9.926;2023-09-18T03:01:21;9.25;;;7.10;;
43823;SDS011;29470;53.550;9.926;2023-09-18T03:06:24;8.60;;;6.47;;
43823;SDS011;29470;53.550;9.926;2023-09-18T03:11:29;8.02;;;6.90;;
43823;SDS011;29470;53.550;9.926;2023-09-18T03:16:32;9.98;;;6.53;;
43823;SDS011;29470;53.550;9.926;2023-09-18T03:21:35;7.82;;;6.32;;
43823;SDS011;29470;53.550;9.926;2023-09-18T03:26:40;9.18;;;6.38;;
43823;SDS011;29470;53.550;9.926;2023-09-18T03:31:43;8.68;;;6.55;;
43823;SDS011;29470;53.550;9.926;2023-09-18T03:36:46;8.57;;;6.15;;
43823;SDS011;29470;53.550;9.926;2023-09-18T03:41:51;7.97;;;6.63;;
43823;SDS011;29470;53.550;9.926;2023-09-18T03:46:54;8.40;;;6.95;;
43823;SDS011;29470;53.550;9.926;2023-09-18T03:51:57;10.50;;;7.25;;
43823;SDS011;29470;53.550;9.926;2023-09-18T03:57:01;8.82;;;6.90;;
43823;SDS011;29470;53.550;9.926;2023-09-18T04:02:04;7.88;;;6.55;;
43823;SDS011;29470;53.550;9.926;2023-09-18T04:07:07;8.77;;;6.78;;
43823;SDS011;29470;53.550;9.926;2023-09-18T04:12:12;9.05;;;6.70;;
43823;SDS011;29470;53.550;9.926;2023-09-18T04:17:15;9.18;;;6.97;;
43823;SDS011;29470;53.550;9.926;2023-09-18T04:22:18;9.95;;;7.50;;
43823;SDS011;29470;53.550;9.926;2023-09-18T04:27:22;9.60;;;7.20;;
43823;SDS011;29470;53.550;9.926;2023-09-18T04:32:25;9.68;;;7.10;;
43823;SDS011;29470;53.550;9.926;2023-09-18T04:37:31;8.60;;;7.07;;
43823;SDS011;29470;53.550;9.926;2023-09-18T04:42:35;10.65;;;7.28;;
43823;SDS011;29470;53.550;9.926;2023-09-18T04:47:38;8.40;;;6.78;;
43823;SDS011;29470;53.550;9.926;2023-09-18T04:52:42;9.48;;;7.88;;
43823;SDS011;29470;53.550;9.926;2023-09-18T04:57:49;9.88;;;7.45;;
43823;SDS011;29470;53.550;9.926;2023-09-18T05:02:52;8.25;;;6.95;;
43823;SDS011;29470;53.550;9.926;2023-09-18T05:07:55;10.77;;;7.75;;
43823;SDS011;29470;53.550;9.926;2023-09-18T05:13:00;10.38;;;8.40;;
43823;SDS011;29470;53.550;9.926;2023-09-18T05:18:04;11.50;;;8.43;;
43823;SDS011;29470;53.550;9.926;2023-09-18T05:23:08;10.15;;;8.40;;
43823;SDS011;29470;53.550;9.926;2023-09-18T05:28:12;11.35;;;8.40;;
43823;SDS011;29470;53.550;9.926;2023-09-18T05:33:15;9.93;;;8.30;;
43823;SDS011;29470;53.550;9.926;2023-09-18T05:38:18;13.82;;;8.50;;
43823;SDS011;29470;53.550;9.926;2023-09-18T05:43:22;11.23;;;7.60;;
43823;SDS011;29470;53.550;9.926;2023-09-18T05:48:25;11.77;;;8.27;;
43823;SDS011;29470;53.550;9.926;2023-09-18T05:53:28;11.50;;;7.32;;
43823;SDS011;29470;53.550;9.926;2023-09-18T05:58:33;10.93;;;7.30;;
43823;SDS011;29470;53.550;9.926;2023-09-18T06:03:37;11.68;;;7.50;;
43823;SDS011;29470;53.550;9.926;2023-09-18T06:08:40;8.98;;;6.60;;
43823;SDS011;29470;53.550;9.926;2023-09-18T06:13:44;8.90;;;7.03;;
43823;SDS011;29470;53.550;9.926;2023-09-18T06:18:47;8.95;;;6.45;;
43823;SDS011;29470;53.550;9.926;2023-09-18T06:23:49;11.00;;;7.18;;
43823;SDS011;29470;53.550;9.926;2023-09-18T06:28:54;9.73;;;6.85;;
43823;SDS011;29470;53.550;9.926;2023-09-18T06:33:58;8.52;;;6.72;;
43823;SDS011;29470;53.550;9.926;2023-09-18T06:39:00;11.30;;;6.88;;
43823;SDS011;29470;53.550;9.926;2023-09-18T06:44:05;13.50;;;7.30;;
43823;SDS011;29470;53.550;9.926;2023-09-18T06:49:08;10.55;;;6.90;;
43823;SDS011;29470;53.550;9.926;2023-09-18T06:54:11;10.57;;;7.28;;
43823;SDS011;29470;53.550;9.926;2023-09-18T06:59:15;9.43;;;6.70;;
43823;SDS011;29470;53.550;9.926;2023-09-18T07:04:18;8.60;;;6.45;;
43823;SDS011;29470;53.550;9.926;2023-09-18T07:09:21;8.38;;;7.00;;
43823;SDS011;29470;53.550;9.926;2023-09-18T07:14:27;8.70;;;6.60;;
43823;SDS011;29470;53.550;9.926;2023-09-18T07:19:31;9.82;;;7.05;;
43823;SDS011;29470;53.550;9.926;2023-09-18T07:24:34;10.05;;;6.57;;
43823;SDS011;29470;53.550;9.926;2023-09-18T07:29:39;7.93;;;6.20;;
43823;SDS011;29470;53.550;9.926;2023-09-18T07:34:43;9.57;;;6.00;;
43823;SDS011;29470;53.550;9.926;2023-09-18T07:39:48;8.10;;;6.43;;
43823;SDS011;29470;53.550;9.926;2023-09-18T07:44:53;9.77;;;6.63;;
43823;SDS011;29470;53.550;9.926;2023-09-18T07:49:59;8.90;;;6.00;;
43823;SDS011;29470;53.550;9.926;2023-09-18T07:55:02;9.15;;;5.82;;
43823;SDS011;29470;53.550;9.926;2023-09-18T08:00:07;8.57;;;6.40;;
43823;SDS011;29470;53.550;9.926;2023-09-18T08:05:14;8.25;;;6.38;;
43823;SDS011;29470;53.550;9.926;2023-09-18T08:10:17;9.93;;;6.60;;
43823;SDS011;29470;53.550;9.926;2023-09-18T08:15:21;9.75;;;6.07;;
43823;SDS011;29470;53.550;9.926;2023-09-18T08:20:25;6.60;;;5.85;;
43823;SDS011;29470;53.550;9.926;2023-09-18T08:25:30;10.60;;;6.18;;
43823;SDS011;29470;53.550;9.926;2023-09-18T08:30:34;8.57;;;6.50;;
43823;SDS011;29470;53.550;9.926;2023-09-18T08:35:38;10.15;;;7.05;;
43823;SDS011;29470;53.550;9.926;2023-09-18T08:40:41;10.15;;;6.63;;
43823;SDS011;29470;53.550;9.926;2023-09-18T08:45:47;9.77;;;7.03;;
43823;SDS011;29470;53.550;9.926;2023-09-18T08:50:53;8.75;;;7.32;;
43823;SDS011;29470;53.550;9.926;2023-09-18T08:55:57;10.43;;;7.05;;
43823;SDS011;29470;53.550;9.926;2023-09-18T09:01:04;8.60;;;6.32;;
43823;SDS011;29470;53.550;9.926;2023-09-18T09:06:11;9.38;;;6.70;;
43823;SDS011;29470;53.550;9.926;2023-09-18T09:11:14;8.57;;;6.43;;
43823;SDS011;29470;53.550;9.926;2023-09-18T09:16:19;7.53;;;6.22;;
43823;SDS011;29470;53.550;9.926;2023-09-18T09:21:22;7.85;;;6.10;;
43823;SDS011;29470;53.550;9.926;2023-09-18T09:26:25;7.95;;;6.35;;
43823;SDS011;29470;53.550;9.926;2023-09-18T09:31:29;9.07;;;6.18;;
43823;SDS011;29470;53.550;9.926;2023-09-18T09:36:32;11.43;;;5.53;;
43823;SDS011;29470;53.550;9.926;2023-09-18T09:41:35;9.32;;;5.50;;
43823;SDS011;29470;53.550;9.926;2023-09-18T09:46:45;7.53;;;5.38;;
43823;SDS011;29470;53.550;9.926;2023-09-18T09:51:50;8.13;;;4.78;;
43823;SDS011;29470;53.550;9.926;2023-09-18T09:56:55;9.73;;;5.90;;
43823;SDS011;29470;53.550;9.926;2023-09-18T10:02:01;9.52;;;5.20;;
43823;SDS011;29470;53.550;9.926;2023-09-18T10:07:05;8.93;;;4.43;;
43823;SDS011;29470;53.550;9.926;2023-09-18T10:12:10;7.53;;;4.20;;
43823;SDS011;29470;53.550;9.926;2023-09-18T10:17:17;8.55;;;4.50;;
43823;SDS011;29470;53.550;9.926;2023-09-18T10:22:24;7.93;;;4.47;;
43823;SDS011;29470;53.550;9.926;2023-09-18T10:27:39;8.10;;;4.30;;
43823;SDS011;29470;53.550;9.926;2023-09-18T10:32:44;8.48;;;4.63;;
43823;SDS011;29470;53.550;9.926;2023-09-18T10:37:49;7.20;;;4.33;;
43823;SDS011;29470;53.550;9.926;2023-09-18T10:42:57;7.03;;;4.10;;
43823;SDS011;29470;53.550;9.926;2023-09-18T10:48:01;8.98;;;4.53;;
43823;SDS011;29470;53.550;9.926;2023-09-18T10:53:05;6.80;;;4.32;;
43823;SDS011;29470;53.550;9.926;2023-09-18T10:58:08;6.75;;;4.10;;
43823;SDS011;29470;53.550;9.926;2023-09-18T11:03:14;8.63;;;4.70;;
43823;SDS011;29470;53.550;9.926;2023-09-18T11:08:29;9.00;;;4.13;;
43823;SDS011;29470;53.550;9.926;2023-09-18T11:13:36;8.45;;;4.55;;
43823;SDS011;29470;53.550;9.926;2023-09-18T11:18:42;8.35;;;4.20;;
43823;SDS011;29470;53.550;9.926;2023-09-18T11:23:48;8.93;;;4.20;;
43823;SDS011;29470;53.550;9.926;2023-09-18T11:29:00;8.35;;;4.05;;
43823;SDS011;29470;53.550;9.926;2023-09-18T11:34:12;6.57;;;3.75;;
43823;SDS011;29470;53.550;9.926;2023-09-18T11:39:34;12.30;;;4.32;;
43823;SDS011;29470;53.550;9.926;2023-09-18T11:44:38;9.80;;;4.47;;
43823;SDS011;29470;53.550;9.926;2023-09-18T11:49:53;6.95;;;3.75;;
43823;SDS011;29470;53.550;9.926;2023-09-18T11:54:59;7.55;;;3.50;;
43823;SDS011;29470;53.550;9.926;2023-09-18T12:00:05;8.18;;;3.33;;
43823;SDS011;29470;53.550;9.926;2023-09-18T12:05:25;8.00;;;3.33;;
43823;SDS011;29470;53.550;9.926;2023-09-18T12:10:28;5.90;;;3.10;;
43823;SDS011;29470;53.550;9.926;2023-09-18T12:15:33;8.75;;;4.35;;
43823;SDS011;29470;53.550;9.926;2023-09-18T12:20:37;8.70;;;4.00;;
43823;SDS011;29470;53.550;9.926;2023-09-18T12:25:43;8.85;;;3.10;;
43823;SDS011;29470;53.550;9.926;2023-09-18T12:30:52;7.85;;;3.65;;
43823;SDS011;29470;53.550;9.926;2023-09-18T12:35:58;7.90;;;3.17;;
43823;SDS011;29470;53.550;9.926;2023-09-18T12:41:02;7.80;;;3.92;;
43823;SDS011;29470;53.550;9.926;2023-09-18T12:46:08;9.55;;;3.13;;
43823;SDS011;29470;53.550;9.926;2023-09-18T12:51:13;8.68;;;3.45;;
43823;SDS011;29470;53.550;9.926;2023-09-18T12:56:20;7.70;;;3.30;;
43823;SDS011;29470;53.550;9.926;2023-09-18T13:01:26;11.10;;;3.35;;
43823;SDS011;29470;53.550;9.926;2023-09-18T13:06:31;6.65;;;2.85;;
43823;SDS011;29470;53.550;9.926;2023-09-18T13:17:02;5.80;;;2.30;;
43823;SDS011;29470;53.550;9.926;2023-09-18T13:22:07;7.43;;;2.42;;
43823;SDS011;29470;53.550;9.926;2023-09-18T13:27:10;8.55;;;2.70;;
43823;SDS011;29470;53.550;9.926;2023-09-18T13:32:13;5.60;;;2.72;;
43823;SDS011;29470;53.550;9.926;2023-09-18T13:37:17;6.22;;;2.97;;
43823;SDS011;29470;53.550;9.926;2023-09-18T13:42:22;7.20;;;2.90;;
43823;SDS011;29470;53.550;9.926;2023-09-18T13:47:25;8.55;;;3.03;;
43823;SDS011;29470;53.550;9.926;2023-09-18T13:52:30;6.63;;;3.42;;
43823;SDS011;29470;53.550;9.926;2023-09-18T13:57:34;6.63;;;3.10;;
43823;SDS011;29470;53.550;9.926;2023-09-18T14:02:38;5.93;;;3.30;;
43823;SDS011;29470;53.550;9.926;2023-09-18T14:07:43;6.85;;;3.15;;
43823;SDS011;29470;53.550;9.926;2023-09-18T14:12:49;7.72;;;2.97;;
43823;SDS011;29470;53.550;9.926;2023-09-18T14:17:52;9.35;;;2.88;;
43823;SDS011;29470;53.550;9.926;2023-09-18T14:22:57;5.93;;;2.75;;
43823;SDS011;29470;53.550;9.926;2023-09-18T14:28:00;5.13;;;3.00;;
43823;SDS011;29470;53.550;9.926;2023-09-18T14:33:04;6.65;;;2.85;;
43823;SDS011;29470;53.550;9.926;2023-09-18T14:38:08;5.18;;;2.85;;
43823;SDS011;29470;53.550;9.926;2023-09-18T14:43:11;4.63;;;2.70;;
43823;SDS011;29470;53.550;9.926;2023-09-18T14:48:14;4.53;;;3.08;;
43823;SDS011;29470;53.550;9.926;2023-09-18T14:53:21;6.68;;;3.00;;
43823;SDS011;29470;53.550;9.926;2023-09-18T14:58:24;9.15;;;3.13;;
43823;SDS011;29470;53.550;9.926;2023-09-18T15:03:27;6.60;;;2.80;;
43823;SDS011;29470;53.550;9.926;2023-09-18T15:08:31;6.68;;;2.70;;
43823;SDS011;29470;53.550;9.926;2023-09-18T15:13:34;5.22;;;2.67;;
43823;SDS011;29470;53.550;9.926;2023-09-18T15:18:38;6.60;;;3.40;;
43823;SDS011;29470;53.550;9.926;2023-09-18T15:23:42;6.82;;;2.85;;
43823;SDS011;29470;53.550;9.926;2023-09-18T15:28:46;6.15;;;2.90;;
43823;SDS011;29470;53.550;9.926;2023-09-18T15:33:49;4.82;;;2.40;;
43823;SDS011;29470;53.550;9.926;2023-09-18T15:38:53;7.10;;;2.63;;
43823;SDS011;29470;53.550;9.926;2023-09-18T15:43:58;4.25;;;2.40;;
43823;SDS011;29470;53.550;9.926;2023-09-18T15:49:01;6.93;;;2.35;;
43823;SDS011;29470;53.550;9.926;2023-09-18T15:54:05;6.97;;;2.20;;
43823;SDS011;29470;53.550;9.926;2023-09-18T15:59:08;9.85;;;5.15;;
43823;SDS011;29470;53.550;9.926;2023-09-18T16:04:13;4.25;;;2.28;;
43823;SDS011;29470;53.550;9.926;2023-09-18T16:09:17;5.38;;;2.20;;
43823;SDS011;29470;53.550;9.926;2023-09-18T16:14:21;4.25;;;2.38;;
43823;SDS011;29470;53.550;9.926;2023-09-18T16:19:24;5.47;;;2.40;;
43823;SDS011;29470;53.550;9.926;2023-09-18T16:24:34;4.10;;;2.60;;
43823;SDS011;29470;53.550;9.926;2023-09-18T16:29:40;3.07;;;2.30;;
43823;SDS011;29470;53.550;9.926;2023-09-18T16:34:51;4.70;;;2.33;;
43823;SDS011;29470;53.550;9.926;2023-09-18T16:39:55;7.32;;;2.80;;
43823;SDS011;29470;53.550;9.926;2023-09-18T16:44:58;4.72;;;2.50;;
43823;SDS011;29470;53.550;9.926;2023-09-18T16:50:02;6.93;;;2.40;;
43823;SDS011;29470;53.550;9.926;2023-09-18T16:55:07;3.75;;;2.55;;
43823;SDS011;29470;53.550;9.926;2023-09-18T17:00:11;3.45;;;2.10;;
43823;SDS011;29470;53.550;9.926;2023-09-18T17:05:14;5.22;;;2.53;;
43823;SDS011;29470;53.550;9.926;2023-09-18T17:10:19;6.03;;;2.65;;
43823;SDS011;29470;53.550;9.926;2023-09-18T17:15:24;5.47;;;2.90;;
43823;SDS011;29470;53.550;9.926;2023-09-18T17:20:28;5.10;;;2.40;;
43823;SDS011;29470;53.550;9.926;2023-09-18T17:25:33;6.15;;;2.50;;
43823;SDS011;29470;53.550;9.926;2023-09-18T17:30:39;8.25;;;3.30;;
43823;SDS011;29470;53.550;9.926;2023-09-18T17:35:42;5.47;;;3.00;;
43823;SDS011;29470;53.550;9.926;2023-09-18T17:40:48;5.95;;;2.80;;
43823;SDS011;29470;53.550;9.926;2023-09-18T17:45:50;4.47;;;2.10;;
43823;SDS011;29470;53.550;9.926;2023-09-18T17:50:55;4.05;;;2.17;;
43823;SDS011;29470;53.550;9.926;2023-09-18T17:56:09;4.57;;;2.80;;
43823;SDS011;29470;53.550;9.926;2023-09-18T18:01:13;7.30;;;3.00;;
43823;SDS011;29470;53.550;9.926;2023-09-18T18:06:16;6.88;;;2.70;;
43823;SDS011;29470;53.550;9.926;2023-09-18T18:11:20;5.38;;;2.72;;
43823;SDS011;29470;53.550;9.926;2023-09-18T18:16:23;6.05;;;2.30;;
43823;SDS011;29470;53.550;9.926;2023-09-18T18:21:26;4.50;;;2.53;;
43823;SDS011;29470;53.550;9.926;2023-09-18T18:26:30;6.95;;;2.42;;
43823;SDS011;29470;53.550;9.926;2023-09-18T18:31:35;4.53;;;2.22;;
43823;SDS011;29470;53.550;9.926;2023-09-18T18:36:38;4.63;;;2.35;;
43823;SDS011;29470;53.550;9.926;2023-09-18T18:41:43;4.40;;;2.45;;
43823;SDS011;29470;53.550;9.926;2023-09-18T18:46:46;5.43;;;2.30;;
43823;SDS011;29470;53.550;9.926;2023-09-18T18:51:49;4.68;;;2.25;;
43823;SDS011;29470;53.550;9.926;2023-09-18T18:56:55;5.18;;;2.45;;
43823;SDS011;29470;53.550;9.926;2023-09-18T19:01:58;7.47;;;2.78;;
43823;SDS011;29470;53.550;9.926;2023-09-18T19:07:06;7.45;;;2.60;;
43823;SDS011;29470;53.550;9.926;2023-09-18T19:12:13;5.60;;;2.20;;
43823;SDS011;29470;53.550;9.926;2023-09-18T19:17:19;4.22;;;2.15;;
43823;SDS011;29470;53.550;9.926;2023-09-18T19:22:22;4.53;;;2.00;;
43823;SDS011;29470;53.550;9.926;2023-09-18T19:27:26;4.10;;;2.10;;
43823;SDS011;29470;53.550;9.926;2023-09-18T19:32:29;3.40;;;2.20;;
43823;SDS011;29470;53.550;9.926;2023-09-18T19:37:32;5.60;;;2.05;;
43823;SDS011;29470;53.550;9.926;2023-09-18T19:42:36;6.50;;;2.10;;
43823;SDS011;29470;53.550;9.926;2023-09-18T19:47:39;6.50;;;2.00;;
43823;SDS011;29470;53.550;9.926;2023-09-18T19:52:43;6.85;;;2.53;;
43823;SDS011;29470;53.550;9.926;2023-09-18T19:57:47;4.53;;;1.92;;
43823;SDS011;29470;53.550;9.926;2023-09-18T20:02:50;4.03;;;2.03;;
43823;SDS011;29470;53.550;9.926;2023-09-18T20:07:53;4.88;;;2.13;;
43823;SDS011;29470;53.550;9.926;2023-09-18T20:12:58;7.53;;;2.40;;
43823;SDS011;29470;53.550;9.926;2023-09-18T20:18:05;5.18;;;2.53;;
43823;SDS011;29470;53.550;9.926;2023-09-18T20:23:08;6.63;;;1.50;;
43823;SDS011;29470;53.550;9.926;2023-09-18T20:28:12;5.45;;;1.33;;
43823;SDS011;29470;53.550;9.926;2023-09-18T20:33:15;3.75;;;1.00;;
43823;SDS011;29470;53.550;9.926;2023-09-18T20:38:18;1.73;;;0.88;;
43823;SDS011;29470;53.550;9.926;2023-09-18T20:43:22;2.08;;;0.70;;
43823;SDS011;29470;53.550;9.926;2023-09-18T20:48:26;1.75;;;1.00;;
43823;SDS011;29470;53.550;9.926;2023-09-18T20:53:32;2.20;;;1.20;;
43823;SDS011;29470;53.550;9.926;2023-09-18T20:58:36;2.70;;;1.38;;
43823;SDS011;29470;53.550;9.926;2023-09-18T21:03:39;1.70;;;1.00;;
43823;SDS011;29470;53.550;9.926;2023-09-18T21:08:42;1.90;;;1.10;;
43823;SDS011;29470;53.550;9.926;2023-09-18T21:13:46;1.95;;;1.20;;
43823;SDS011;29470;53.550;9.926;2023-09-18T21:18:50;1.95;;;1.20;;
43823;SDS011;29470;53.550;9.926;2023-09-18T21:23:53;2.75;;;1.58;;
43823;SDS011;29470;53.550;9.926;2023-09-18T21:28:57;2.80;;;1.63;;
43823;SDS011;29470;53.550;9.926;2023-09-18T21:34:00;2.40;;;1.13;;
43823;SDS011;29470;53.550;9.926;2023-09-18T21:39:04;3.30;;;1.48;;
43823;SDS011;29470;53.550;9.926;2023-09-18T21:44:10;2.75;;;1.10;;
43823;SDS011;29470;53.550;9.926;2023-09-18T21:49:14;4.20;;;1.20;;
43823;SDS011;29470;53.550;9.926;2023-09-18T21:54:19;1.63;;;0.95;;
43823;SDS011;29470;53.550;9.926;2023-09-18T21:59:23;2.50;;;1.27;;
43823;SDS011;29470;53.550;9.926;2023-09-18T22:04:26;2.40;;;1.30;;
43823;SDS011;29470;53.550;9.926;2023-09-18T22:09:28;2.05;;;1.10;;
43823;SDS011;29470;53.550;9.926;2023-09-18T22:14:33;1.50;;;1.15;;
43823;SDS011;29470;53.550;9.926;2023-09-18T22:19:36;2.65;;;1.00;;
43823;SDS011;29470;53.550;9.926;2023-09-18T22:24:39;3.65;;;1.10;;
43823;SDS011;29470;53.550;9.926;2023-09-18T22:29:43;4.10;;;1.30;;
43823;SDS011;29470;53.550;9.926;2023-09-18T22:34:47;3.03;;;1.20;;
43823;SDS011;29470;53.550;9.926;2023-09-18T22:56:26;5.70;;;1.20;;
43823;SDS011;29470;53.550;9.926;2023-09-18T23:01:29;4.40;;;1.23;;
43823;SDS011;29470;53.550;9.926;2023-09-18T23:06:33;2.65;;;1.42;;
43823;SDS011;29470;53.550;9.926;2023-09-18T23:11:37;3.17;;;1.52;;
43823;SDS011;29470;53.550;9.926;2023-09-18T23:16:42;2.15;;;1.30;;
43823;SDS011;29470;53.550;9.926;2023-09-18T23:21:48;2.75;;;1.10;;
43823;SDS011;29470;53.550;9.926;2023-09-18T23:26:53;2.72;;;1.40;;
43823;SDS011;29470;53.550;9.926;2023-09-18T23:31:56;2.55;;;1.40;;
43823;SDS011;29470;53.550;9.926;2023-09-18T23:36:59;2.42;;;1.25;;
43823;SDS011;29470;53.550;9.926;2023-09-18T23:42:06;2.53;;;1.30;;
43823;SDS011;29470;53.550;9.926;2023-09-18T23:47:09;3.20;;;1.58;;
43823;SDS011;29470;53.550;9.926;2023-09-18T23:52:13;2.53;;;1.88;;
43823;SDS011;29470;53.550;9.926;2023-09-18T23:57:19;4.13;;;1.70;;
